sensor_id;sensor_type;location;lat;lon;timestamp;temperature;humidity
17887;DHT22;9069;52.044;7.472;2024-02-23T00:02:26;11.20;96.30
17887;DHT22;9069;52.044;7.472;2024-02-23T00:04:53;11.10;96.10
17887;DHT22;9069;52.044;7.472;2024-02-23T00:07:20;11.00;96.10
17887;DHT22;9069;52.044;7.472;2024-02-23T00:09:47;11.00;96.00
17887;DHT22;9069;52.044;7.472;2024-02-23T00:12:14;10.90;96.00
17887;DHT22;9069;52.044;7.472;2024-02-23T00:14:41;10.80;96.10
17887;DHT22;9069;52.044;7.472;2024-02-23T00:17:08;10.70;96.20
17887;DHT22;9069;52.044;7.472;2024-02-23T00:19:35;10.60;96.30
17887;DHT22;9069;52.044;7.472;2024-02-23T00:22:02;10.60;96.40
17887;DHT22;9069;52.044;7.472;2024-02-23T00:24:31;10.40;96.50
17887;DHT22;9069;52.044;7.472;2024-02-23T00:26:57;10.40;96.60
17887;DHT22;9069;52.044;7.472;2024-02-23T00:29:24;10.30;96.70
17887;DHT22;9069;52.044;7.472;2024-02-23T00:31:51;10.30;96.90
17887;DHT22;9069;52.044;7.472;2024-02-23T00:34:18;10.20;97.00
17887;DHT22;9069;52.044;7.472;2024-02-23T00:36:45;10.10;96.90
17887;DHT22;9069;52.044;7.472;2024-02-23T00:39:12;10.10;96.80
17887;DHT22;9069;52.044;7.472;2024-02-23T00:41:38;10.00;96.90
17887;DHT22;9069;52.044;7.472;2024-02-23T00:44:06;10.00;97.00
17887;DHT22;9069;52.044;7.472;2024-02-23T00:46:33;9.90;97.10
17887;DHT22;9069;52.044;7.472;2024-02-23T00:49:02;9.90;97.10
17887;DHT22;9069;52.044;7.472;2024-02-23T00:51:29;9.80;97.10
17887;DHT22;9069;52.044;7.472;2024-02-23T00:53:56;9.80;97.30
17887;DHT22;9069;52.044;7.472;2024-02-23T00:56:23;9.70;97.30
17887;DHT22;9069;52.044;7.472;2024-02-23T00:59:02;9.70;97.50
17887;DHT22;9069;52.044;7.472;2024-02-23T01:01:29;9.60;97.50
17887;DHT22;9069;52.044;7.472;2024-02-23T01:03:56;9.60;97.60
17887;DHT22;9069;52.044;7.472;2024-02-23T01:06:23;9.60;97.60
17887;DHT22;9069;52.044;7.472;2024-02-23T01:08:51;9.60;97.70
17887;DHT22;9069;52.044;7.472;2024-02-23T01:11:18;9.50;97.70
17887;DHT22;9069;52.044;7.472;2024-02-23T01:13:45;9.50;97.70
17887;DHT22;9069;52.044;7.472;2024-02-23T01:16:12;9.50;97.70
17887;DHT22;9069;52.044;7.472;2024-02-23T01:18:39;9.50;97.70
17887;DHT22;9069;52.044;7.472;2024-02-23T01:21:08;9.40;97.80
17887;DHT22;9069;52.044;7.472;2024-02-23T01:23:39;9.40;97.90
17887;DHT22;9069;52.044;7.472;2024-02-23T01:26:06;9.40;98.00
17887;DHT22;9069;52.044;7.472;2024-02-23T01:28:33;9.40;98.00
17887;DHT22;9069;52.044;7.472;2024-02-23T01:31:00;9.40;98.10
17887;DHT22;9069;52.044;7.472;2024-02-23T01:33:52;9.30;98.10
17887;DHT22;9069;52.044;7.472;2024-02-23T01:36:19;9.30;98.10
17887;DHT22;9069;52.044;7.472;2024-02-23T01:38:46;9.30;98.10
17887;DHT22;9069;52.044;7.472;2024-02-23T01:41:13;9.30;98.20
17887;DHT22;9069;52.044;7.472;2024-02-23T01:43:40;9.30;98.30
17887;DHT22;9069;52.044;7.472;2024-02-23T01:46:07;9.30;98.30
17887;DHT22;9069;52.044;7.472;2024-02-23T01:48:34;9.30;98.70
17887;DHT22;9069;52.044;7.472;2024-02-23T01:51:03;9.30;98.40
17887;DHT22;9069;52.044;7.472;2024-02-23T01:53:30;9.20;98.40
17887;DHT22;9069;52.044;7.472;2024-02-23T01:55:58;9.30;98.40
17887;DHT22;9069;52.044;7.472;2024-02-23T01:58:27;9.20;98.40
17887;DHT22;9069;52.044;7.472;2024-02-23T02:00:54;9.20;98.40
17887;DHT22;9069;52.044;7.472;2024-02-23T02:03:21;9.20;98.50
17887;DHT22;9069;52.044;7.472;2024-02-23T02:05:48;9.20;98.50
17887;DHT22;9069;52.044;7.472;2024-02-23T02:08:16;9.20;98.60
17887;DHT22;9069;52.044;7.472;2024-02-23T02:10:43;9.30;98.60
17887;DHT22;9069;52.044;7.472;2024-02-23T02:13:12;9.20;98.60
17887;DHT22;9069;52.044;7.472;2024-02-23T02:15:39;9.20;98.60
17887;DHT22;9069;52.044;7.472;2024-02-23T02:18:06;9.20;98.60
17887;DHT22;9069;52.044;7.472;2024-02-23T02:20:33;9.20;98.70
17887;DHT22;9069;52.044;7.472;2024-02-23T02:23:02;9.20;98.70
17887;DHT22;9069;52.044;7.472;2024-02-23T02:25:29;9.20;98.70
17887;DHT22;9069;52.044;7.472;2024-02-23T02:27:56;9.20;98.70
17887;DHT22;9069;52.044;7.472;2024-02-23T02:30:23;9.20;98.60
17887;DHT22;9069;52.044;7.472;2024-02-23T02:32:49;9.30;98.70
17887;DHT22;9069;52.044;7.472;2024-02-23T02:35:16;9.30;98.60
17887;DHT22;9069;52.044;7.472;2024-02-23T02:37:43;9.30;98.60
17887;DHT22;9069;52.044;7.472;2024-02-23T02:40:10;9.30;98.60
17887;DHT22;9069;52.044;7.472;2024-02-23T02:42:37;9.30;98.60
17887;DHT22;9069;52.044;7.472;2024-02-23T02:45:04;9.30;98.60
17887;DHT22;9069;52.044;7.472;2024-02-23T02:47:31;9.30;98.70
17887;DHT22;9069;52.044;7.472;2024-02-23T02:49:58;9.30;98.60
17887;DHT22;9069;52.044;7.472;2024-02-23T02:52:26;9.30;98.60
17887;DHT22;9069;52.044;7.472;2024-02-23T02:54:55;9.30;98.60
17887;DHT22;9069;52.044;7.472;2024-02-23T02:57:21;9.30;98.50
17887;DHT22;9069;52.044;7.472;2024-02-23T02:59:48;9.30;98.60
17887;DHT22;9069;52.044;7.472;2024-02-23T03:02:16;9.30;98.50
17887;DHT22;9069;52.044;7.472;2024-02-23T03:04:50;9.30;98.50
17887;DHT22;9069;52.044;7.472;2024-02-23T03:07:17;9.40;98.40
17887;DHT22;9069;52.044;7.472;2024-02-23T03:09:44;9.40;98.80
17887;DHT22;9069;52.044;7.472;2024-02-23T03:12:11;9.40;98.40
17887;DHT22;9069;52.044;7.472;2024-02-23T03:14:38;9.40;98.20
17887;DHT22;9069;52.044;7.472;2024-02-23T03:17:08;9.40;98.20
17887;DHT22;9069;52.044;7.472;2024-02-23T03:19:36;9.40;98.10
17887;DHT22;9069;52.044;7.472;2024-02-23T03:22:04;9.40;98.10
17887;DHT22;9069;52.044;7.472;2024-02-23T03:24:32;9.40;98.20
17887;DHT22;9069;52.044;7.472;2024-02-23T03:26:58;9.40;98.10
17887;DHT22;9069;52.044;7.472;2024-02-23T03:29:27;9.40;98.10
17887;DHT22;9069;52.044;7.472;2024-02-23T03:31:57;9.40;98.00
17887;DHT22;9069;52.044;7.472;2024-02-23T03:34:24;9.40;98.00
17887;DHT22;9069;52.044;7.472;2024-02-23T03:36:51;9.40;97.80
17887;DHT22;9069;52.044;7.472;2024-02-23T03:39:22;9.40;97.90
17887;DHT22;9069;52.044;7.472;2024-02-23T03:41:49;9.40;97.70
17887;DHT22;9069;52.044;7.472;2024-02-23T03:44:15;9.40;97.80
17887;DHT22;9069;52.044;7.472;2024-02-23T03:46:42;9.40;97.80
17887;DHT22;9069;52.044;7.472;2024-02-23T03:49:09;9.40;97.80
17887;DHT22;9069;52.044;7.472;2024-02-23T03:51:36;9.50;97.70
17887;DHT22;9069;52.044;7.472;2024-02-23T03:54:06;9.50;97.80
17887;DHT22;9069;52.044;7.472;2024-02-23T03:56:42;9.50;97.60
17887;DHT22;9069;52.044;7.472;2024-02-23T03:59:09;9.50;97.30
17887;DHT22;9069;52.044;7.472;2024-02-23T04:01:37;9.50;97.50
17887;DHT22;9069;52.044;7.472;2024-02-23T04:04:05;9.40;97.40
17887;DHT22;9069;52.044;7.472;2024-02-23T04:06:33;9.40;97.60
17887;DHT22;9069;52.044;7.472;2024-02-23T04:09:04;9.40;97.20
17887;DHT22;9069;52.044;7.472;2024-02-23T04:11:32;9.40;97.40
17887;DHT22;9069;52.044;7.472;2024-02-23T04:13:59;9.40;97.20
17887;DHT22;9069;52.044;7.472;2024-02-23T04:16:28;9.40;97.20
17887;DHT22;9069;52.044;7.472;2024-02-23T04:18:55;9.30;97.20
17887;DHT22;9069;52.044;7.472;2024-02-23T04:21:23;9.30;97.30
17887;DHT22;9069;52.044;7.472;2024-02-23T04:23:50;9.30;97.30
17887;DHT22;9069;52.044;7.472;2024-02-23T04:26:18;9.30;97.40
17887;DHT22;9069;52.044;7.472;2024-02-23T04:28:44;9.30;97.40
17887;DHT22;9069;52.044;7.472;2024-02-23T04:31:11;9.30;97.40
17887;DHT22;9069;52.044;7.472;2024-02-23T04:33:38;9.50;97.40
17887;DHT22;9069;52.044;7.472;2024-02-23T04:36:06;9.30;97.40
17887;DHT22;9069;52.044;7.472;2024-02-23T04:38:35;9.30;97.30
17887;DHT22;9069;52.044;7.472;2024-02-23T04:41:03;9.30;97.40
17887;DHT22;9069;52.044;7.472;2024-02-23T04:43:32;9.30;97.30
17887;DHT22;9069;52.044;7.472;2024-02-23T04:45:59;9.30;97.30
17887;DHT22;9069;52.044;7.472;2024-02-23T04:48:32;9.30;97.40
17887;DHT22;9069;52.044;7.472;2024-02-23T04:50:59;9.30;97.30
17887;DHT22;9069;52.044;7.472;2024-02-23T04:53:30;9.30;97.40
17887;DHT22;9069;52.044;7.472;2024-02-23T04:55:57;9.20;97.40
17887;DHT22;9069;52.044;7.472;2024-02-23T04:58:24;9.30;97.40
17887;DHT22;9069;52.044;7.472;2024-02-23T05:00:51;9.20;97.40
17887;DHT22;9069;52.044;7.472;2024-02-23T05:03:18;9.40;97.50
17887;DHT22;9069;52.044;7.472;2024-02-23T05:05:44;9.30;97.50
17887;DHT22;9069;52.044;7.472;2024-02-23T05:08:11;9.30;97.50
17887;DHT22;9069;52.044;7.472;2024-02-23T05:10:38;9.30;97.50
17887;DHT22;9069;52.044;7.472;2024-02-23T05:13:05;9.30;97.40
17887;DHT22;9069;52.044;7.472;2024-02-23T05:15:32;9.30;97.40
17887;DHT22;9069;52.044;7.472;2024-02-23T05:17:58;9.30;97.30
17887;DHT22;9069;52.044;7.472;2024-02-23T05:20:27;9.30;97.30
17887;DHT22;9069;52.044;7.472;2024-02-23T05:22:54;9.30;97.40
17887;DHT22;9069;52.044;7.472;2024-02-23T05:25:21;9.30;97.40
17887;DHT22;9069;52.044;7.472;2024-02-23T05:27:47;9.30;97.70
17887;DHT22;9069;52.044;7.472;2024-02-23T05:30:14;9.30;97.20
17887;DHT22;9069;52.044;7.472;2024-02-23T05:32:41;9.30;97.20
17887;DHT22;9069;52.044;7.472;2024-02-23T05:35:08;9.30;97.20
17887;DHT22;9069;52.044;7.472;2024-02-23T05:37:36;9.30;97.20
17887;DHT22;9069;52.044;7.472;2024-02-23T05:40:04;9.40;97.20
17887;DHT22;9069;52.044;7.472;2024-02-23T05:42:34;9.30;97.20
17887;DHT22;9069;52.044;7.472;2024-02-23T05:45:07;9.30;97.20
17887;DHT22;9069;52.044;7.472;2024-02-23T05:47:37;10.00;97.40
17887;DHT22;9069;52.044;7.472;2024-02-23T05:50:10;9.30;97.20
17887;DHT22;9069;52.044;7.472;2024-02-23T05:52:37;9.30;97.00
17887;DHT22;9069;52.044;7.472;2024-02-23T05:55:06;9.30;97.20
17887;DHT22;9069;52.044;7.472;2024-02-23T05:57:33;9.30;97.20
17887;DHT22;9069;52.044;7.472;2024-02-23T06:00:00;9.30;97.20
17887;DHT22;9069;52.044;7.472;2024-02-23T06:02:37;9.30;97.20
17887;DHT22;9069;52.044;7.472;2024-02-23T06:05:05;9.30;97.20
17887;DHT22;9069;52.044;7.472;2024-02-23T06:07:34;9.30;97.10
17887;DHT22;9069;52.044;7.472;2024-02-23T06:10:02;9.30;97.10
17887;DHT22;9069;52.044;7.472;2024-02-23T06:12:29;9.30;97.10
17887;DHT22;9069;52.044;7.472;2024-02-23T06:14:56;9.30;97.10
17887;DHT22;9069;52.044;7.472;2024-02-23T06:17:23;9.30;97.10
17887;DHT22;9069;52.044;7.472;2024-02-23T06:19:51;9.30;97.10
17887;DHT22;9069;52.044;7.472;2024-02-23T06:22:20;9.30;97.10
17887;DHT22;9069;52.044;7.472;2024-02-23T06:24:48;9.30;97.10
17887;DHT22;9069;52.044;7.472;2024-02-23T06:27:15;9.30;97.10
17887;DHT22;9069;52.044;7.472;2024-02-23T06:29:48;9.40;97.10
17887;DHT22;9069;52.044;7.472;2024-02-23T06:32:15;9.30;97.00
17887;DHT22;9069;52.044;7.472;2024-02-23T06:34:42;9.30;97.00
17887;DHT22;9069;52.044;7.472;2024-02-23T06:37:09;9.30;97.00
17887;DHT22;9069;52.044;7.472;2024-02-23T06:39:36;9.30;96.90
17887;DHT22;9069;52.044;7.472;2024-02-23T06:42:03;9.40;96.90
17887;DHT22;9069;52.044;7.472;2024-02-23T06:44:31;9.30;96.90
17887;DHT22;9069;52.044;7.472;2024-02-23T06:46:58;9.40;96.90
17887;DHT22;9069;52.044;7.472;2024-02-23T06:49:25;9.50;96.90
17887;DHT22;9069;52.044;7.472;2024-02-23T06:51:52;9.50;96.90
17887;DHT22;9069;52.044;7.472;2024-02-23T06:54:19;9.40;96.80
17887;DHT22;9069;52.044;7.472;2024-02-23T06:56:46;9.40;96.70
17887;DHT22;9069;52.044;7.472;2024-02-23T06:59:12;9.40;96.70
17887;DHT22;9069;52.044;7.472;2024-02-23T07:01:49;9.40;96.70
17887;DHT22;9069;52.044;7.472;2024-02-23T07:04:17;9.40;96.40
17887;DHT22;9069;52.044;7.472;2024-02-23T07:06:44;9.40;96.70
17887;DHT22;9069;52.044;7.472;2024-02-23T07:09:11;9.40;96.70
17887;DHT22;9069;52.044;7.472;2024-02-23T07:11:39;9.40;96.70
17887;DHT22;9069;52.044;7.472;2024-02-23T07:14:08;9.50;96.70
17887;DHT22;9069;52.044;7.472;2024-02-23T07:16:39;9.50;96.70
17887;DHT22;9069;52.044;7.472;2024-02-23T07:19:07;9.50;96.60
17887;DHT22;9069;52.044;7.472;2024-02-23T07:21:34;9.50;96.80
17887;DHT22;9069;52.044;7.472;2024-02-23T07:24:06;9.60;97.00
17887;DHT22;9069;52.044;7.472;2024-02-23T07:26:33;9.60;96.90
17887;DHT22;9069;52.044;7.472;2024-02-23T07:29:00;9.70;97.20
17887;DHT22;9069;52.044;7.472;2024-02-23T07:31:28;9.70;97.20
17887;DHT22;9069;52.044;7.472;2024-02-23T07:33:55;9.80;97.10
17887;DHT22;9069;52.044;7.472;2024-02-23T07:36:22;9.90;96.90
17887;DHT22;9069;52.044;7.472;2024-02-23T07:38:48;10.00;96.70
17887;DHT22;9069;52.044;7.472;2024-02-23T07:41:15;10.00;96.60
17887;DHT22;9069;52.044;7.472;2024-02-23T07:43:50;10.00;96.30
17887;DHT22;9069;52.044;7.472;2024-02-23T07:46:17;10.00;96.20
17887;DHT22;9069;52.044;7.472;2024-02-23T07:48:45;10.00;96.10
17887;DHT22;9069;52.044;7.472;2024-02-23T07:51:14;10.10;96.00
17887;DHT22;9069;52.044;7.472;2024-02-23T07:53:40;10.10;96.00
17887;DHT22;9069;52.044;7.472;2024-02-23T07:56:08;10.10;95.90
17887;DHT22;9069;52.044;7.472;2024-02-23T07:58:35;10.00;95.80
17887;DHT22;9069;52.044;7.472;2024-02-23T08:01:01;10.10;95.90
17887;DHT22;9069;52.044;7.472;2024-02-23T08:03:32;10.10;95.80
17887;DHT22;9069;52.044;7.472;2024-02-23T08:06:04;10.10;95.80
17887;DHT22;9069;52.044;7.472;2024-02-23T08:08:31;10.10;95.50
17887;DHT22;9069;52.044;7.472;2024-02-23T08:11:06;10.10;95.70
17887;DHT22;9069;52.044;7.472;2024-02-23T08:13:34;10.10;95.40
17887;DHT22;9069;52.044;7.472;2024-02-23T08:16:07;10.10;95.80
17887;DHT22;9069;52.044;7.472;2024-02-23T08:18:33;10.10;95.40
17887;DHT22;9069;52.044;7.472;2024-02-23T08:21:05;10.10;95.90
17887;DHT22;9069;52.044;7.472;2024-02-23T08:23:32;10.20;95.80
17887;DHT22;9069;52.044;7.472;2024-02-23T08:25:59;10.30;96.20
17887;DHT22;9069;52.044;7.472;2024-02-23T08:28:31;10.30;96.20
17887;DHT22;9069;52.044;7.472;2024-02-23T08:30:58;10.50;96.20
17887;DHT22;9069;52.044;7.472;2024-02-23T08:33:24;10.40;96.10
17887;DHT22;9069;52.044;7.472;2024-02-23T08:35:51;10.40;96.30
17887;DHT22;9069;52.044;7.472;2024-02-23T08:38:18;10.50;95.90
17887;DHT22;9069;52.044;7.472;2024-02-23T08:40:45;10.50;95.90
17887;DHT22;9069;52.044;7.472;2024-02-23T08:43:13;10.60;95.80
17887;DHT22;9069;52.044;7.472;2024-02-23T08:45:40;10.70;95.20
17887;DHT22;9069;52.044;7.472;2024-02-23T08:48:07;10.80;95.30
17887;DHT22;9069;52.044;7.472;2024-02-23T08:50:35;10.80;95.10
17887;DHT22;9069;52.044;7.472;2024-02-23T08:53:02;10.80;94.70
17887;DHT22;9069;52.044;7.472;2024-02-23T08:55:29;10.80;94.50
17887;DHT22;9069;52.044;7.472;2024-02-23T08:57:57;10.90;94.50
17887;DHT22;9069;52.044;7.472;2024-02-23T09:00:23;10.90;94.30
17887;DHT22;9069;52.044;7.472;2024-02-23T09:02:51;10.90;94.40
17887;DHT22;9069;52.044;7.472;2024-02-23T09:05:18;10.90;94.30
17887;DHT22;9069;52.044;7.472;2024-02-23T09:07:46;10.90;94.00
17887;DHT22;9069;52.044;7.472;2024-02-23T09:10:13;10.90;93.90
17887;DHT22;9069;52.044;7.472;2024-02-23T09:12:40;10.90;94.00
17887;DHT22;9069;52.044;7.472;2024-02-23T09:15:07;10.90;94.00
17887;DHT22;9069;52.044;7.472;2024-02-23T09:17:34;10.90;93.80
17887;DHT22;9069;52.044;7.472;2024-02-23T09:20:01;10.90;93.90
17887;DHT22;9069;52.044;7.472;2024-02-23T09:22:28;10.90;94.00
17887;DHT22;9069;52.044;7.472;2024-02-23T09:24:55;10.90;94.40
17887;DHT22;9069;52.044;7.472;2024-02-23T09:27:24;10.90;94.00
17887;DHT22;9069;52.044;7.472;2024-02-23T09:29:51;11.00;93.90
17887;DHT22;9069;52.044;7.472;2024-02-23T09:32:17;10.90;93.80
17887;DHT22;9069;52.044;7.472;2024-02-23T09:34:44;10.90;93.80
17887;DHT22;9069;52.044;7.472;2024-02-23T09:37:11;11.00;93.90
17887;DHT22;9069;52.044;7.472;2024-02-23T09:39:38;11.10;93.80
17887;DHT22;9069;52.044;7.472;2024-02-23T09:42:10;11.00;93.80
17887;DHT22;9069;52.044;7.472;2024-02-23T09:44:38;11.00;93.30
17887;DHT22;9069;52.044;7.472;2024-02-23T09:47:06;11.20;93.60
17887;DHT22;9069;52.044;7.472;2024-02-23T09:49:39;11.00;93.90
17887;DHT22;9069;52.044;7.472;2024-02-23T09:52:09;11.00;93.30
17887;DHT22;9069;52.044;7.472;2024-02-23T09:54:37;11.00;93.50
17887;DHT22;9069;52.044;7.472;2024-02-23T09:57:08;10.90;93.30
17887;DHT22;9069;52.044;7.472;2024-02-23T09:59:36;11.00;93.10
17887;DHT22;9069;52.044;7.472;2024-02-23T10:02:09;11.00;93.50
17887;DHT22;9069;52.044;7.472;2024-02-23T10:04:39;10.90;92.90
17887;DHT22;9069;52.044;7.472;2024-02-23T10:07:07;11.00;93.50
17887;DHT22;9069;52.044;7.472;2024-02-23T10:09:34;10.90;93.50
17887;DHT22;9069;52.044;7.472;2024-02-23T10:12:03;10.90;93.50
17887;DHT22;9069;52.044;7.472;2024-02-23T10:14:30;10.90;93.10
17887;DHT22;9069;52.044;7.472;2024-02-23T10:16:57;10.90;93.50
17887;DHT22;9069;52.044;7.472;2024-02-23T10:19:24;10.90;93.60
17887;DHT22;9069;52.044;7.472;2024-02-23T10:21:56;11.00;93.50
17887;DHT22;9069;52.044;7.472;2024-02-23T10:24:23;10.90;93.30
17887;DHT22;9069;52.044;7.472;2024-02-23T10:26:52;11.00;93.20
17887;DHT22;9069;52.044;7.472;2024-02-23T10:29:19;10.90;93.30
17887;DHT22;9069;52.044;7.472;2024-02-23T10:31:48;11.00;93.30
17887;DHT22;9069;52.044;7.472;2024-02-23T10:34:19;11.00;93.30
17887;DHT22;9069;52.044;7.472;2024-02-23T10:36:46;11.00;93.10
17887;DHT22;9069;52.044;7.472;2024-02-23T10:39:18;11.00;93.20
17887;DHT22;9069;52.044;7.472;2024-02-23T10:42:00;11.00;92.60
17887;DHT22;9069;52.044;7.472;2024-02-23T10:44:28;10.90;92.70
17887;DHT22;9069;52.044;7.472;2024-02-23T10:46:58;11.00;93.10
17887;DHT22;9069;52.044;7.472;2024-02-23T10:49:27;10.90;92.80
17887;DHT22;9069;52.044;7.472;2024-02-23T10:51:54;10.90;92.90
17887;DHT22;9069;52.044;7.472;2024-02-23T10:54:22;10.90;93.10
17887;DHT22;9069;52.044;7.472;2024-02-23T10:56:50;10.90;93.10
17887;DHT22;9069;52.044;7.472;2024-02-23T10:59:19;10.90;93.10
17887;DHT22;9069;52.044;7.472;2024-02-23T11:01:51;10.90;93.20
17887;DHT22;9069;52.044;7.472;2024-02-23T11:04:20;11.00;92.90
17887;DHT22;9069;52.044;7.472;2024-02-23T11:06:55;11.00;93.20
17887;DHT22;9069;52.044;7.472;2024-02-23T11:09:25;11.00;93.00
17887;DHT22;9069;52.044;7.472;2024-02-23T11:11:57;11.10;93.50
17887;DHT22;9069;52.044;7.472;2024-02-23T11:14:37;11.00;93.00
17887;DHT22;9069;52.044;7.472;2024-02-23T11:17:05;11.00;92.70
17887;DHT22;9069;52.044;7.472;2024-02-23T11:22:02;11.10;93.20
17887;DHT22;9069;52.044;7.472;2024-02-23T11:24:30;11.10;92.90
17887;DHT22;9069;52.044;7.472;2024-02-23T11:26:58;11.20;93.30
17887;DHT22;9069;52.044;7.472;2024-02-23T11:29:29;11.20;93.30
17887;DHT22;9069;52.044;7.472;2024-02-23T11:31:57;11.20;93.20
17887;DHT22;9069;52.044;7.472;2024-02-23T11:34:28;11.30;93.30
17887;DHT22;9069;52.044;7.472;2024-02-23T11:36:55;11.30;93.30
17887;DHT22;9069;52.044;7.472;2024-02-23T11:39:22;11.30;93.10
17887;DHT22;9069;52.044;7.472;2024-02-23T11:41:50;11.30;92.90
17887;DHT22;9069;52.044;7.472;2024-02-23T11:44:17;11.40;92.90
17887;DHT22;9069;52.044;7.472;2024-02-23T11:46:44;11.40;92.90
17887;DHT22;9069;52.044;7.472;2024-02-23T11:49:14;11.40;93.00
17887;DHT22;9069;52.044;7.472;2024-02-23T11:51:43;11.50;93.20
17887;DHT22;9069;52.044;7.472;2024-02-23T11:54:11;11.50;93.40
17887;DHT22;9069;52.044;7.472;2024-02-23T11:56:40;11.60;93.30
17887;DHT22;9069;52.044;7.472;2024-02-23T11:59:07;11.60;93.00
17887;DHT22;9069;52.044;7.472;2024-02-23T12:01:34;11.70;93.00
17887;DHT22;9069;52.044;7.472;2024-02-23T12:04:01;11.70;93.10
17887;DHT22;9069;52.044;7.472;2024-02-23T12:06:29;11.70;93.00
17887;DHT22;9069;52.044;7.472;2024-02-23T12:08:59;11.70;92.80
17887;DHT22;9069;52.044;7.472;2024-02-23T12:11:28;11.70;92.80
17887;DHT22;9069;52.044;7.472;2024-02-23T12:13:55;11.70;92.70
17887;DHT22;9069;52.044;7.472;2024-02-23T12:16:25;11.70;92.70
17887;DHT22;9069;52.044;7.472;2024-02-23T12:18:56;11.70;92.60
17887;DHT22;9069;52.044;7.472;2024-02-23T12:21:23;11.70;92.40
17887;DHT22;9069;52.044;7.472;2024-02-23T12:23:50;11.70;92.80
17887;DHT22;9069;52.044;7.472;2024-02-23T12:26:18;11.70;92.70
17887;DHT22;9069;52.044;7.472;2024-02-23T12:28:45;11.70;92.60
17887;DHT22;9069;52.044;7.472;2024-02-23T12:31:12;11.80;92.80
17887;DHT22;9069;52.044;7.472;2024-02-23T12:33:40;11.80;92.70
17887;DHT22;9069;52.044;7.472;2024-02-23T12:36:08;11.80;92.70
17887;DHT22;9069;52.044;7.472;2024-02-23T12:38:37;11.80;92.40
17887;DHT22;9069;52.044;7.472;2024-02-23T12:41:05;11.90;92.30
17887;DHT22;9069;52.044;7.472;2024-02-23T12:43:32;11.90;91.90
17887;DHT22;9069;52.044;7.472;2024-02-23T12:45:59;11.90;92.10
17887;DHT22;9069;52.044;7.472;2024-02-23T12:48:32;11.90;92.00
17887;DHT22;9069;52.044;7.472;2024-02-23T12:50:59;12.00;91.90
17887;DHT22;9069;52.044;7.472;2024-02-23T12:53:51;12.00;91.70
17887;DHT22;9069;52.044;7.472;2024-02-23T12:56:18;11.90;91.80
17887;DHT22;9069;52.044;7.472;2024-02-23T12:58:45;12.00;91.80
17887;DHT22;9069;52.044;7.472;2024-02-23T13:01:12;11.90;91.80
17887;DHT22;9069;52.044;7.472;2024-02-23T13:03:39;11.90;91.80
17887;DHT22;9069;52.044;7.472;2024-02-23T13:06:09;11.90;91.90
17887;DHT22;9069;52.044;7.472;2024-02-23T13:08:36;11.90;92.00
17887;DHT22;9069;52.044;7.472;2024-02-23T13:11:03;11.80;92.40
17887;DHT22;9069;52.044;7.472;2024-02-23T13:13:34;11.80;92.80
17887;DHT22;9069;52.044;7.472;2024-02-23T13:16:01;11.80;93.10
17887;DHT22;9069;52.044;7.472;2024-02-23T13:18:30;11.80;93.40
17887;DHT22;9069;52.044;7.472;2024-02-23T13:20:57;11.70;93.60
17887;DHT22;9069;52.044;7.472;2024-02-23T13:23:24;11.80;93.90
17887;DHT22;9069;52.044;7.472;2024-02-23T13:25:51;11.70;94.00
17887;DHT22;9069;52.044;7.472;2024-02-23T13:28:18;11.70;94.20
17887;DHT22;9069;52.044;7.472;2024-02-23T13:30:45;11.70;94.20
17887;DHT22;9069;52.044;7.472;2024-02-23T13:33:11;11.70;94.20
17887;DHT22;9069;52.044;7.472;2024-02-23T13:35:39;11.70;94.20
17887;DHT22;9069;52.044;7.472;2024-02-23T13:38:06;11.70;94.30
17887;DHT22;9069;52.044;7.472;2024-02-23T13:40:35;11.70;94.30
17887;DHT22;9069;52.044;7.472;2024-02-23T13:43:02;11.70;94.50
17887;DHT22;9069;52.044;7.472;2024-02-23T13:45:29;11.70;94.70
17887;DHT22;9069;52.044;7.472;2024-02-23T13:48:02;11.70;94.70
17887;DHT22;9069;52.044;7.472;2024-02-23T13:50:32;11.70;94.50
17887;DHT22;9069;52.044;7.472;2024-02-23T13:53:02;11.80;94.80
17887;DHT22;9069;52.044;7.472;2024-02-23T13:55:30;11.80;94.90
17887;DHT22;9069;52.044;7.472;2024-02-23T13:57:56;11.80;94.90
17887;DHT22;9069;52.044;7.472;2024-02-23T14:00:24;11.90;95.00
17887;DHT22;9069;52.044;7.472;2024-02-23T14:02:51;11.90;94.90
17887;DHT22;9069;52.044;7.472;2024-02-23T14:05:18;11.90;94.70
17887;DHT22;9069;52.044;7.472;2024-02-23T14:07:45;12.00;94.60
17887;DHT22;9069;52.044;7.472;2024-02-23T14:10:12;11.90;94.50
17887;DHT22;9069;52.044;7.472;2024-02-23T14:12:41;12.00;94.50
17887;DHT22;9069;52.044;7.472;2024-02-23T14:15:08;12.00;94.40
17887;DHT22;9069;52.044;7.472;2024-02-23T14:17:37;12.00;94.40
17887;DHT22;9069;52.044;7.472;2024-02-23T14:20:04;12.00;94.50
17887;DHT22;9069;52.044;7.472;2024-02-23T14:22:31;12.00;94.50
17887;DHT22;9069;52.044;7.472;2024-02-23T14:24:58;12.00;94.70
17887;DHT22;9069;52.044;7.472;2024-02-23T14:27:27;12.00;94.70
17887;DHT22;9069;52.044;7.472;2024-02-23T14:29:57;12.00;94.70
17887;DHT22;9069;52.044;7.472;2024-02-23T14:32:25;12.00;94.70
17887;DHT22;9069;52.044;7.472;2024-02-23T14:34:52;12.00;94.50
17887;DHT22;9069;52.044;7.472;2024-02-23T14:37:19;12.00;94.30
17887;DHT22;9069;52.044;7.472;2024-02-23T14:39:45;12.00;94.30
17887;DHT22;9069;52.044;7.472;2024-02-23T14:42:14;12.00;94.20
17887;DHT22;9069;52.044;7.472;2024-02-23T14:44:40;12.00;94.20
17887;DHT22;9069;52.044;7.472;2024-02-23T14:47:07;12.00;94.20
17887;DHT22;9069;52.044;7.472;2024-02-23T14:49:34;12.00;94.30
17887;DHT22;9069;52.044;7.472;2024-02-23T14:52:01;12.00;94.20
17887;DHT22;9069;52.044;7.472;2024-02-23T14:54:28;12.10;94.20
17887;DHT22;9069;52.044;7.472;2024-02-23T14:56:56;12.10;94.30
17887;DHT22;9069;52.044;7.472;2024-02-23T14:59:23;12.00;94.30
17887;DHT22;9069;52.044;7.472;2024-02-23T15:01:50;12.00;94.20
17887;DHT22;9069;52.044;7.472;2024-02-23T15:04:17;12.10;94.20
17887;DHT22;9069;52.044;7.472;2024-02-23T15:06:45;12.10;94.10
17887;DHT22;9069;52.044;7.472;2024-02-23T15:09:12;12.10;93.70
17887;DHT22;9069;52.044;7.472;2024-02-23T15:11:39;12.10;93.70
17887;DHT22;9069;52.044;7.472;2024-02-23T15:14:06;12.10;93.70
17887;DHT22;9069;52.044;7.472;2024-02-23T15:16:33;12.10;93.80
17887;DHT22;9069;52.044;7.472;2024-02-23T15:19:00;12.10;94.00
17887;DHT22;9069;52.044;7.472;2024-02-23T15:21:29;12.00;94.20
17887;DHT22;9069;52.044;7.472;2024-02-23T15:23:56;12.10;94.20
17887;DHT22;9069;52.044;7.472;2024-02-23T15:26:23;12.00;94.30
17887;DHT22;9069;52.044;7.472;2024-02-23T15:28:50;12.00;94.40
17887;DHT22;9069;52.044;7.472;2024-02-23T15:31:17;12.00;94.40
17887;DHT22;9069;52.044;7.472;2024-02-23T15:33:44;12.00;94.40
17887;DHT22;9069;52.044;7.472;2024-02-23T15:36:12;11.90;94.50
17887;DHT22;9069;52.044;7.472;2024-02-23T15:38:42;11.90;94.50
17887;DHT22;9069;52.044;7.472;2024-02-23T15:41:09;11.90;94.50
17887;DHT22;9069;52.044;7.472;2024-02-23T15:43:36;11.90;94.50
17887;DHT22;9069;52.044;7.472;2024-02-23T15:46:08;11.80;94.50
17887;DHT22;9069;52.044;7.472;2024-02-23T15:48:34;11.80;94.40
17887;DHT22;9069;52.044;7.472;2024-02-23T15:51:05;11.80;94.70
17887;DHT22;9069;52.044;7.472;2024-02-23T15:53:49;11.80;94.50
17887;DHT22;9069;52.044;7.472;2024-02-23T15:56:16;11.80;94.70
17887;DHT22;9069;52.044;7.472;2024-02-23T15:58:43;11.80;94.70
17887;DHT22;9069;52.044;7.472;2024-02-23T16:01:10;11.70;94.70